This is the latest recevied weather packets stored in our database for station/object EW7404. If no packets are shown the sender has not sent any weather packets the latest 10 day(s).
| Time | Temp. | Humidity | Pressure | Rain* | Wind** | Luminosity | Snow |
|---|---|---|---|---|---|---|---|
| 1778030116 | 4.44° C | 58% | 951.1 hPa | 0 mm | - | - | - |
| 1778029536 | 4.44° C | 58% | 951.1 hPa | 0 mm | - | - | - |
| 1778027715 | 4.44° C | 57% | 951.2 hPa | 0 mm | - | - | - |
| 1778027116 | 4.44° C | 56% | 951.3 hPa | 0 mm | - | - | - |
| 1778024116 | 5° C | 52% | 951.6 hPa | 0 mm | - | - | - |
| 1778022916 | 5° C | 52% | 951.7 hPa | 0 mm | - | - | - |
| 1778019915 | 5° C | 50% | 951.8 hPa | 5.08 mm | - | - | - |
| 1778013915 | 5° C | 50% | 952 hPa | 0 mm | - | - | - |
| 1778012716 | 5° C | 53% | 952 hPa | 0 mm | - | - | - |
| 1778007915 | 4.44° C | 62% | 951.8 hPa | 0 mm | - | - | - |
| 1778001316 | 5° C | 56% | 951.6 hPa | 0 mm | - | - | - |
| 1777997136 | 5.56° C | 53% | 951.8 hPa | 0 mm | - | - | - |
| 1777988115 | 5.56° C | 53% | 952.8 hPa | 0 mm | - | - | - |
| 1777983916 | 5° C | 55% | 952.3 hPa | 0 mm | - | - | - |
| 1777983316 | 5° C | 53% | 952.4 hPa | 0 mm | - | - | - |
| 1777978515 | 4.44° C | 49% | 952.6 hPa | 6.1 mm | - | - | - |
| 1777977316 | 4.44° C | 47% | 952.5 hPa | 6.1 mm | - | - | - |
| 1777974315 | 5° C | 56% | 952.6 hPa | 6.1 mm | - | - | - |
| 1777966816 | 2.22° C | 73% | 952.2 hPa | 0 mm | - | - | - |
| 1777966235 | 2.78° C | 69% | 952.1 hPa | 0 mm | - | - | - |
| 1777965616 | 2.22° C | 74% | 952.1 hPa | 0 mm | - | - | - |
| 1777964416 | 1.67° C | 76% | 952.1 hPa | 0 mm | - | - | - |
| 1777959015 | 1.11° C | 77% | 951.7 hPa | 0 mm | - | - | - |
| 1777957236 | 1.11° C | 77% | 951.6 hPa | 0 mm | - | - | - |
| 1777955416 | 1.11° C | 76% | 951.5 hPa | 0 mm | - | - | - |
* Rain latest hour (hover to see other rain measurements)
** Current wind speed in m/s (hover to see current wind gust speed)